sensor_id;sensor_type;location;lat;lon;timestamp;P1;durP1;ratioP1;P2;durP2;ratioP2
26908;SDS011;14477;51.038;4.588;2022-09-25T00:00:42;2.90;;;1.10;;
26908;SDS011;14477;51.038;4.588;2022-09-25T00:03:09;3.00;;;1.20;;
26908;SDS011;14477;51.038;4.588;2022-09-25T00:05:36;2.40;;;1.15;;
26908;SDS011;14477;51.038;4.588;2022-09-25T00:08:03;2.17;;;1.10;;
26908;SDS011;14477;51.038;4.588;2022-09-25T00:10:29;2.30;;;1.10;;
26908;SDS011;14477;51.038;4.588;2022-09-25T00:12:55;3.03;;;1.23;;
26908;SDS011;14477;51.038;4.588;2022-09-25T00:15:21;4.03;;;1.33;;
26908;SDS011;14477;51.038;4.588;2022-09-25T00:17:47;2.20;;;1.23;;
26908;SDS011;14477;51.038;4.588;2022-09-25T00:20:14;1.93;;;1.13;;
26908;SDS011;14477;51.038;4.588;2022-09-25T00:22:41;1.83;;;1.20;;
26908;SDS011;14477;51.038;4.588;2022-09-25T00:25:11;3.13;;;1.25;;
26908;SDS011;14477;51.038;4.588;2022-09-25T00:27:38;3.38;;;1.20;;
26908;SDS011;14477;51.038;4.588;2022-09-25T00:30:04;2.45;;;1.10;;
26908;SDS011;14477;51.038;4.588;2022-09-25T00:32:31;2.07;;;1.00;;
26908;SDS011;14477;51.038;4.588;2022-09-25T00:34:56;2.58;;;1.08;;
26908;SDS011;14477;51.038;4.588;2022-09-25T00:37:22;2.40;;;1.03;;
26908;SDS011;14477;51.038;4.588;2022-09-25T00:39:47;2.65;;;1.02;;
26908;SDS011;14477;51.038;4.588;2022-09-25T00:42:13;2.03;;;1.10;;
26908;SDS011;14477;51.038;4.588;2022-09-25T00:51:11;1.50;;;1.10;;
26908;SDS011;14477;51.038;4.588;2022-09-25T00:53:14;2.33;;;1.03;;
26908;SDS011;14477;51.038;4.588;2022-09-25T00:55:44;2.50;;;1.10;;
26908;SDS011;14477;51.038;4.588;2022-09-25T00:58:11;1.83;;;1.02;;
26908;SDS011;14477;51.038;4.588;2022-09-25T01:00:38;4.18;;;1.38;;
26908;SDS011;14477;51.038;4.588;2022-09-25T01:03:05;2.45;;;1.02;;
26908;SDS011;14477;51.038;4.588;2022-09-25T01:05:34;1.93;;;1.03;;
26908;SDS011;14477;51.038;4.588;2022-09-25T01:08:02;1.38;;;1.00;;
26908;SDS011;14477;51.038;4.588;2022-09-25T01:10:30;5.15;;;1.23;;
26908;SDS011;14477;51.038;4.588;2022-09-25T01:12:56;2.55;;;1.10;;
26908;SDS011;14477;51.038;4.588;2022-09-25T01:15:30;2.17;;;1.13;;
26908;SDS011;14477;51.038;4.588;2022-09-25T01:35:15;2.85;;;1.00;;
26908;SDS011;14477;51.038;4.588;2022-09-25T01:40:09;1.67;;;0.88;;
26908;SDS011;14477;51.038;4.588;2022-09-25T01:42:47;2.95;;;1.10;;
26908;SDS011;14477;51.038;4.588;2022-09-25T01:45:29;1.17;;;0.90;;
26908;SDS011;14477;51.038;4.588;2022-09-25T01:48:07;1.58;;;0.80;;
26908;SDS011;14477;51.038;4.588;2022-09-25T01:50:46;1.63;;;0.90;;
26908;SDS011;14477;51.038;4.588;2022-09-25T01:53:26;1.65;;;0.90;;
26908;SDS011;14477;51.038;4.588;2022-09-25T01:56:40;1.63;;;1.00;;
26908;SDS011;14477;51.038;4.588;2022-09-25T01:58:54;1.63;;;1.10;;
26908;SDS011;14477;51.038;4.588;2022-09-25T02:01:25;2.30;;;1.00;;
26908;SDS011;14477;51.038;4.588;2022-09-25T02:03:57;2.00;;;0.95;;
26908;SDS011;14477;51.038;4.588;2022-09-25T02:06:27;2.30;;;1.00;;
26908;SDS011;14477;51.038;4.588;2022-09-25T02:08:59;2.55;;;1.10;;
26908;SDS011;14477;51.038;4.588;2022-09-25T02:11:30;1.53;;;0.90;;
26908;SDS011;14477;51.038;4.588;2022-09-25T02:14:05;1.20;;;0.90;;
26908;SDS011;14477;51.038;4.588;2022-09-25T02:16:39;1.88;;;0.95;;
26908;SDS011;14477;51.038;4.588;2022-09-25T02:19:08;2.25;;;1.10;;
26908;SDS011;14477;51.038;4.588;2022-09-25T02:22:03;1.73;;;0.90;;
26908;SDS011;14477;51.038;4.588;2022-09-25T02:27:34;2.75;;;0.80;;
26908;SDS011;14477;51.038;4.588;2022-09-25T02:29:59;2.33;;;1.00;;
26908;SDS011;14477;51.038;4.588;2022-09-25T02:32:27;1.57;;;0.90;;
26908;SDS011;14477;51.038;4.588;2022-09-25T02:34:55;1.35;;;0.85;;
26908;SDS011;14477;51.038;4.588;2022-09-25T02:37:23;1.92;;;1.00;;
26908;SDS011;14477;51.038;4.588;2022-09-25T02:39:51;4.05;;;1.00;;
26908;SDS011;14477;51.038;4.588;2022-09-25T02:47:55;1.48;;;0.98;;
26908;SDS011;14477;51.038;4.588;2022-09-25T02:50:37;1.60;;;0.85;;
26908;SDS011;14477;51.038;4.588;2022-09-25T02:56:02;4.13;;;1.17;;
26908;SDS011;14477;51.038;4.588;2022-09-25T02:58:51;1.65;;;0.95;;
26908;SDS011;14477;51.038;4.588;2022-09-25T03:01:21;1.00;;;0.88;;
26908;SDS011;14477;51.038;4.588;2022-09-25T03:03:50;1.23;;;1.00;;
26908;SDS011;14477;51.038;4.588;2022-09-25T03:06:19;0.95;;;0.85;;
26908;SDS011;14477;51.038;4.588;2022-09-25T03:08:49;1.37;;;0.90;;
26908;SDS011;14477;51.038;4.588;2022-09-25T03:11:20;2.40;;;0.90;;
26908;SDS011;14477;51.038;4.588;2022-09-25T03:14:01;2.05;;;0.85;;
26908;SDS011;14477;51.038;4.588;2022-09-25T03:19:03;1.50;;;0.90;;
26908;SDS011;14477;51.038;4.588;2022-09-25T03:21:28;1.27;;;0.80;;
26908;SDS011;14477;51.038;4.588;2022-09-25T03:23:55;1.85;;;0.90;;
26908;SDS011;14477;51.038;4.588;2022-09-25T03:26:21;1.77;;;1.00;;
26908;SDS011;14477;51.038;4.588;2022-09-25T03:28:48;1.30;;;0.80;;
26908;SDS011;14477;51.038;4.588;2022-09-25T03:31:15;0.80;;;0.70;;
26908;SDS011;14477;51.038;4.588;2022-09-25T03:33:41;1.92;;;1.08;;
26908;SDS011;14477;51.038;4.588;2022-09-25T03:36:11;1.42;;;0.80;;
26908;SDS011;14477;51.038;4.588;2022-09-25T03:38:39;1.48;;;0.80;;
26908;SDS011;14477;51.038;4.588;2022-09-25T03:41:05;1.40;;;0.73;;
26908;SDS011;14477;51.038;4.588;2022-09-25T03:43:36;2.38;;;0.90;;
26908;SDS011;14477;51.038;4.588;2022-09-25T03:46:09;0.98;;;0.88;;
26908;SDS011;14477;51.038;4.588;2022-09-25T03:48:36;1.23;;;0.80;;
26908;SDS011;14477;51.038;4.588;2022-09-25T03:51:03;1.85;;;0.90;;
26908;SDS011;14477;51.038;4.588;2022-09-25T03:53:29;1.07;;;0.80;;
26908;SDS011;14477;51.038;4.588;2022-09-25T03:55:57;2.75;;;0.98;;
26908;SDS011;14477;51.038;4.588;2022-09-25T03:58:28;1.13;;;0.80;;
26908;SDS011;14477;51.038;4.588;2022-09-25T04:00:54;1.27;;;0.98;;
26908;SDS011;14477;51.038;4.588;2022-09-25T04:03:21;1.50;;;0.95;;
26908;SDS011;14477;51.038;4.588;2022-09-25T04:05:48;1.10;;;0.80;;
26908;SDS011;14477;51.038;4.588;2022-09-25T04:08:14;0.80;;;0.70;;
26908;SDS011;14477;51.038;4.588;2022-09-25T04:10:40;1.35;;;0.90;;
26908;SDS011;14477;51.038;4.588;2022-09-25T04:13:05;1.00;;;0.83;;
26908;SDS011;14477;51.038;4.588;2022-09-25T04:15:34;0.98;;;0.80;;
26908;SDS011;14477;51.038;4.588;2022-09-25T04:17:59;3.30;;;0.90;;
26908;SDS011;14477;51.038;4.588;2022-09-25T04:20:25;1.20;;;0.90;;
26908;SDS011;14477;51.038;4.588;2022-09-25T04:22:51;1.25;;;1.05;;
26908;SDS011;14477;51.038;4.588;2022-09-25T04:25:16;1.10;;;0.90;;
26908;SDS011;14477;51.038;4.588;2022-09-25T04:27:45;1.15;;;0.90;;
26908;SDS011;14477;51.038;4.588;2022-09-25T04:30:12;1.20;;;0.85;;
26908;SDS011;14477;51.038;4.588;2022-09-25T04:32:37;1.02;;;0.90;;
26908;SDS011;14477;51.038;4.588;2022-09-25T04:35:21;0.90;;;0.80;;
26908;SDS011;14477;51.038;4.588;2022-09-25T04:37:47;1.50;;;0.90;;
26908;SDS011;14477;51.038;4.588;2022-09-25T04:40:13;1.20;;;0.90;;
26908;SDS011;14477;51.038;4.588;2022-09-25T04:42:38;2.07;;;0.80;;
26908;SDS011;14477;51.038;4.588;2022-09-25T04:45:07;0.88;;;0.80;;
26908;SDS011;14477;51.038;4.588;2022-09-25T04:47:33;1.30;;;0.88;;
26908;SDS011;14477;51.038;4.588;2022-09-25T04:49:59;1.00;;;0.70;;
26908;SDS011;14477;51.038;4.588;2022-09-25T04:52:24;1.73;;;0.80;;
26908;SDS011;14477;51.038;4.588;2022-09-25T04:54:50;1.10;;;0.90;;
26908;SDS011;14477;51.038;4.588;2022-09-25T04:57:16;1.20;;;0.77;;
26908;SDS011;14477;51.038;4.588;2022-09-25T04:59:45;1.42;;;0.90;;
26908;SDS011;14477;51.038;4.588;2022-09-25T05:02:13;2.00;;;0.98;;
26908;SDS011;14477;51.038;4.588;2022-09-25T05:04:39;2.17;;;0.90;;
26908;SDS011;14477;51.038;4.588;2022-09-25T05:07:04;2.03;;;1.10;;
26908;SDS011;14477;51.038;4.588;2022-09-25T05:09:30;2.80;;;1.20;;
26908;SDS011;14477;51.038;4.588;2022-09-25T05:11:56;2.30;;;1.40;;
26908;SDS011;14477;51.038;4.588;2022-09-25T05:14:22;1.33;;;1.10;;
26908;SDS011;14477;51.038;4.588;2022-09-25T05:16:48;1.70;;;1.10;;
26908;SDS011;14477;51.038;4.588;2022-09-25T05:19:14;1.20;;;0.85;;
26908;SDS011;14477;51.038;4.588;2022-09-25T05:21:41;1.40;;;1.02;;
26908;SDS011;14477;51.038;4.588;2022-09-25T05:24:07;2.10;;;1.10;;
26908;SDS011;14477;51.038;4.588;2022-09-25T05:26:36;1.58;;;1.10;;
26908;SDS011;14477;51.038;4.588;2022-09-25T05:29:02;1.80;;;1.00;;
26908;SDS011;14477;51.038;4.588;2022-09-25T05:31:29;1.00;;;0.85;;
26908;SDS011;14477;51.038;4.588;2022-09-25T05:33:55;1.38;;;0.98;;
26908;SDS011;14477;51.038;4.588;2022-09-25T05:36:21;1.53;;;0.90;;
26908;SDS011;14477;51.038;4.588;2022-09-25T05:38:47;1.52;;;1.00;;
26908;SDS011;14477;51.038;4.588;2022-09-25T05:41:12;3.17;;;1.27;;
26908;SDS011;14477;51.038;4.588;2022-09-25T05:43:39;2.20;;;1.10;;
26908;SDS011;14477;51.038;4.588;2022-09-25T05:46:07;1.67;;;1.25;;
26908;SDS011;14477;51.038;4.588;2022-09-25T05:48:33;2.58;;;1.17;;
26908;SDS011;14477;51.038;4.588;2022-09-25T05:50:59;1.70;;;1.10;;
26908;SDS011;14477;51.038;4.588;2022-09-25T05:53:24;1.60;;;1.10;;
26908;SDS011;14477;51.038;4.588;2022-09-25T05:55:54;1.90;;;1.10;;
26908;SDS011;14477;51.038;4.588;2022-09-25T05:58:22;1.50;;;0.90;;
26908;SDS011;14477;51.038;4.588;2022-09-25T06:00:49;1.23;;;0.90;;
26908;SDS011;14477;51.038;4.588;2022-09-25T06:03:15;2.00;;;1.10;;
26908;SDS011;14477;51.038;4.588;2022-09-25T06:05:41;1.35;;;1.00;;
26908;SDS011;14477;51.038;4.588;2022-09-25T06:08:08;2.20;;;0.97;;
26908;SDS011;14477;51.038;4.588;2022-09-25T06:10:33;1.05;;;0.80;;
26908;SDS011;14477;51.038;4.588;2022-09-25T06:13:00;1.13;;;0.87;;
26908;SDS011;14477;51.038;4.588;2022-09-25T06:15:31;1.90;;;0.90;;
26908;SDS011;14477;51.038;4.588;2022-09-25T06:18:01;2.28;;;1.25;;
26908;SDS011;14477;51.038;4.588;2022-09-25T06:20:31;2.30;;;1.30;;
26908;SDS011;14477;51.038;4.588;2022-09-25T06:22:57;2.10;;;1.50;;
26908;SDS011;14477;51.038;4.588;2022-09-25T06:25:25;2.80;;;2.13;;
26908;SDS011;14477;51.038;4.588;2022-09-25T06:27:56;4.18;;;3.53;;
26908;SDS011;14477;51.038;4.588;2022-09-25T06:30:24;4.63;;;3.20;;
26908;SDS011;14477;51.038;4.588;2022-09-25T06:33:25;6.50;;;3.90;;
26908;SDS011;14477;51.038;4.588;2022-09-25T06:35:45;4.87;;;3.70;;
26908;SDS011;14477;51.038;4.588;2022-09-25T06:38:12;6.72;;;4.20;;
26908;SDS011;14477;51.038;4.588;2022-09-25T06:40:39;8.13;;;4.57;;
26908;SDS011;14477;51.038;4.588;2022-09-25T06:43:07;5.90;;;3.53;;
26908;SDS011;14477;51.038;4.588;2022-09-25T06:45:35;4.50;;;2.70;;
26908;SDS011;14477;51.038;4.588;2022-09-25T06:48:03;3.60;;;2.00;;
26908;SDS011;14477;51.038;4.588;2022-09-25T06:53:07;3.38;;;1.98;;
26908;SDS011;14477;51.038;4.588;2022-09-25T06:55:33;3.92;;;2.05;;
26908;SDS011;14477;51.038;4.588;2022-09-25T06:57:59;2.93;;;1.50;;
26908;SDS011;14477;51.038;4.588;2022-09-25T07:00:26;3.47;;;1.70;;
26908;SDS011;14477;51.038;4.588;2022-09-25T07:02:52;2.70;;;1.80;;
26908;SDS011;14477;51.038;4.588;2022-09-25T07:05:36;2.42;;;1.60;;
26908;SDS011;14477;51.038;4.588;2022-09-25T07:08:01;2.83;;;1.90;;
26908;SDS011;14477;51.038;4.588;2022-09-25T07:10:27;3.35;;;1.95;;
26908;SDS011;14477;51.038;4.588;2022-09-25T07:12:53;3.27;;;1.80;;
26908;SDS011;14477;51.038;4.588;2022-09-25T07:15:19;2.93;;;1.50;;
26908;SDS011;14477;51.038;4.588;2022-09-25T07:17:45;3.30;;;1.95;;
26908;SDS011;14477;51.038;4.588;2022-09-25T07:20:11;3.57;;;1.93;;
26908;SDS011;14477;51.038;4.588;2022-09-25T07:22:39;3.80;;;1.92;;
26908;SDS011;14477;51.038;4.588;2022-09-25T07:25:06;4.18;;;1.88;;
26908;SDS011;14477;51.038;4.588;2022-09-25T07:27:33;2.50;;;1.70;;
26908;SDS011;14477;51.038;4.588;2022-09-25T07:29:59;4.97;;;2.03;;
26908;SDS011;14477;51.038;4.588;2022-09-25T07:32:25;3.55;;;2.00;;
26908;SDS011;14477;51.038;4.588;2022-09-25T07:34:51;3.10;;;1.90;;
26908;SDS011;14477;51.038;4.588;2022-09-25T07:37:16;3.53;;;1.50;;
26908;SDS011;14477;51.038;4.588;2022-09-25T07:39:42;3.05;;;1.65;;
26908;SDS011;14477;51.038;4.588;2022-09-25T07:42:08;2.83;;;1.37;;
26908;SDS011;14477;51.038;4.588;2022-09-25T07:44:34;2.35;;;1.40;;
26908;SDS011;14477;51.038;4.588;2022-09-25T07:47:00;2.20;;;1.35;;
26908;SDS011;14477;51.038;4.588;2022-09-25T07:49:28;2.60;;;1.38;;
26908;SDS011;14477;51.038;4.588;2022-09-25T07:51:56;3.37;;;1.57;;
26908;SDS011;14477;51.038;4.588;2022-09-25T07:54:23;2.28;;;1.15;;
26908;SDS011;14477;51.038;4.588;2022-09-25T07:56:51;2.22;;;1.20;;
26908;SDS011;14477;51.038;4.588;2022-09-25T07:59:17;1.53;;;1.17;;
26908;SDS011;14477;51.038;4.588;2022-09-25T08:01:43;2.58;;;1.10;;
26908;SDS011;14477;51.038;4.588;2022-09-25T08:04:08;1.93;;;1.40;;
26908;SDS011;14477;51.038;4.588;2022-09-25T08:06:34;1.83;;;1.10;;
26908;SDS011;14477;51.038;4.588;2022-09-25T08:09:00;1.63;;;1.00;;
26908;SDS011;14477;51.038;4.588;2022-09-25T08:11:26;2.65;;;1.00;;
26908;SDS011;14477;51.038;4.588;2022-09-25T08:13:52;1.27;;;1.00;;
26908;SDS011;14477;51.038;4.588;2022-09-25T08:16:18;2.75;;;1.40;;
26908;SDS011;14477;51.038;4.588;2022-09-25T08:18:47;2.03;;;1.17;;
26908;SDS011;14477;51.038;4.588;2022-09-25T08:21:17;2.25;;;1.00;;
26908;SDS011;14477;51.038;4.588;2022-09-25T08:23:47;2.60;;;1.10;;
26908;SDS011;14477;51.038;4.588;2022-09-25T08:26:17;3.05;;;1.13;;
26908;SDS011;14477;51.038;4.588;2022-09-25T08:28:47;1.52;;;1.20;;
26908;SDS011;14477;51.038;4.588;2022-09-25T08:31:13;2.13;;;1.33;;
26908;SDS011;14477;51.038;4.588;2022-09-25T08:33:42;1.70;;;1.15;;
26908;SDS011;14477;51.038;4.588;2022-09-25T08:36:13;2.35;;;1.20;;
26908;SDS011;14477;51.038;4.588;2022-09-25T08:38:40;1.73;;;1.23;;
26908;SDS011;14477;51.038;4.588;2022-09-25T08:46:21;2.40;;;1.20;;
26908;SDS011;14477;51.038;4.588;2022-09-25T08:49:08;2.33;;;1.10;;
26908;SDS011;14477;51.038;4.588;2022-09-25T08:51:37;2.05;;;1.02;;
26908;SDS011;14477;51.038;4.588;2022-09-25T08:54:04;1.92;;;1.00;;
26908;SDS011;14477;51.038;4.588;2022-09-25T08:56:31;1.92;;;1.15;;
26908;SDS011;14477;51.038;4.588;2022-09-25T09:01:55;1.10;;;1.00;;
26908;SDS011;14477;51.038;4.588;2022-09-25T09:04:33;2.72;;;1.00;;
26908;SDS011;14477;51.038;4.588;2022-09-25T09:07:41;1.10;;;0.85;;
26908;SDS011;14477;51.038;4.588;2022-09-25T09:12:46;1.63;;;1.10;;
26908;SDS011;14477;51.038;4.588;2022-09-25T09:16:04;1.53;;;0.80;;
26908;SDS011;14477;51.038;4.588;2022-09-25T09:18:42;1.75;;;1.00;;
26908;SDS011;14477;51.038;4.588;2022-09-25T09:23:47;2.17;;;0.80;;
26908;SDS011;14477;51.038;4.588;2022-09-25T09:29:28;1.77;;;1.03;;
26908;SDS011;14477;51.038;4.588;2022-09-25T09:32:14;2.33;;;0.90;;
26908;SDS011;14477;51.038;4.588;2022-09-25T09:50:54;1.98;;;1.10;;
26908;SDS011;14477;51.038;4.588;2022-09-25T09:53:29;1.80;;;1.30;;
26908;SDS011;14477;51.038;4.588;2022-09-25T09:56:03;1.87;;;1.30;;
26908;SDS011;14477;51.038;4.588;2022-09-25T09:59:21;1.65;;;1.33;;
26908;SDS011;14477;51.038;4.588;2022-09-25T10:01:23;2.83;;;1.10;;
26908;SDS011;14477;51.038;4.588;2022-09-25T10:04:10;2.25;;;1.35;;
26908;SDS011;14477;51.038;4.588;2022-09-25T10:06:44;2.10;;;1.27;;
26908;SDS011;14477;51.038;4.588;2022-09-25T10:09:14;1.87;;;1.20;;
26908;SDS011;14477;51.038;4.588;2022-09-25T10:11:40;2.80;;;0.98;;
26908;SDS011;14477;51.038;4.588;2022-09-25T10:14:14;3.15;;;1.30;;
26908;SDS011;14477;51.038;4.588;2022-09-25T10:16:46;2.15;;;1.20;;
26908;SDS011;14477;51.038;4.588;2022-09-25T10:19:15;2.38;;;1.52;;
26908;SDS011;14477;51.038;4.588;2022-09-25T10:21:48;1.80;;;1.20;;
26908;SDS011;14477;51.038;4.588;2022-09-25T10:27:21;1.05;;;0.95;;
26908;SDS011;14477;51.038;4.588;2022-09-25T10:38:02;1.42;;;0.80;;
26908;SDS011;14477;51.038;4.588;2022-09-25T10:40:33;1.70;;;1.00;;
26908;SDS011;14477;51.038;4.588;2022-09-25T10:45:39;0.80;;;0.80;;
26908;SDS011;14477;51.038;4.588;2022-09-25T10:51:13;2.90;;;0.77;;
26908;SDS011;14477;51.038;4.588;2022-09-25T10:53:42;1.77;;;0.70;;
26908;SDS011;14477;51.038;4.588;2022-09-25T10:56:10;2.28;;;0.90;;
26908;SDS011;14477;51.038;4.588;2022-09-25T10:58:41;2.13;;;0.98;;
26908;SDS011;14477;51.038;4.588;2022-09-25T11:01:14;2.03;;;1.13;;
26908;SDS011;14477;51.038;4.588;2022-09-25T11:03:45;2.35;;;1.20;;
26908;SDS011;14477;51.038;4.588;2022-09-25T11:08:49;1.70;;;1.00;;
26908;SDS011;14477;51.038;4.588;2022-09-25T11:11:23;1.17;;;1.00;;
26908;SDS011;14477;51.038;4.588;2022-09-25T11:13:58;1.23;;;0.80;;
26908;SDS011;14477;51.038;4.588;2022-09-25T11:19:13;1.67;;;0.75;;
26908;SDS011;14477;51.038;4.588;2022-09-25T11:24:23;1.25;;;0.60;;
26908;SDS011;14477;51.038;4.588;2022-09-25T11:27:04;1.13;;;0.60;;
26908;SDS011;14477;51.038;4.588;2022-09-25T11:40:48;1.17;;;0.77;;
26908;SDS011;14477;51.038;4.588;2022-09-25T11:59:28;1.08;;;0.70;;
26908;SDS011;14477;51.038;4.588;2022-09-25T12:02:15;0.93;;;0.60;;
26908;SDS011;14477;51.038;4.588;2022-09-25T12:07:47;0.63;;;0.57;;
26908;SDS011;14477;51.038;4.588;2022-09-25T12:10:37;1.30;;;0.60;;
26908;SDS011;14477;51.038;4.588;2022-09-25T12:27:48;1.52;;;0.80;;
26908;SDS011;14477;51.038;4.588;2022-09-25T12:30:46;1.25;;;0.77;;
26908;SDS011;14477;51.038;4.588;2022-09-25T12:33:24;1.05;;;0.70;;
26908;SDS011;14477;51.038;4.588;2022-09-25T12:36:11;0.90;;;0.70;;
26908;SDS011;14477;51.038;4.588;2022-09-25T12:39:34;1.20;;;0.80;;
26908;SDS011;14477;51.038;4.588;2022-09-25T12:41:59;1.70;;;0.80;;
26908;SDS011;14477;51.038;4.588;2022-09-25T12:47:21;1.77;;;0.80;;
26908;SDS011;14477;51.038;4.588;2022-09-25T12:52:40;2.45;;;0.70;;
26908;SDS011;14477;51.038;4.588;2022-09-25T12:57:48;1.20;;;0.77;;
26908;SDS011;14477;51.038;4.588;2022-09-25T13:00:20;2.60;;;0.90;;
26908;SDS011;14477;51.038;4.588;2022-09-25T13:09:05;1.42;;;0.70;;
26908;SDS011;14477;51.038;4.588;2022-09-25T13:11:51;1.33;;;0.70;;
26908;SDS011;14477;51.038;4.588;2022-09-25T13:14:29;1.30;;;0.80;;
26908;SDS011;14477;51.038;4.588;2022-09-25T13:16:59;1.33;;;0.67;;
26908;SDS011;14477;51.038;4.588;2022-09-25T13:19:29;1.02;;;0.70;;
26908;SDS011;14477;51.038;4.588;2022-09-25T13:22:08;1.85;;;0.60;;
26908;SDS011;14477;51.038;4.588;2022-09-25T13:27:26;1.15;;;0.70;;
26908;SDS011;14477;51.038;4.588;2022-09-25T13:30:05;1.70;;;0.80;;
26908;SDS011;14477;51.038;4.588;2022-09-25T13:32:44;0.80;;;0.60;;
26908;SDS011;14477;51.038;4.588;2022-09-25T13:35:17;1.08;;;0.70;;
26908;SDS011;14477;51.038;4.588;2022-09-25T13:37:45;1.45;;;0.90;;
26908;SDS011;14477;51.038;4.588;2022-09-25T13:40:15;0.88;;;0.80;;
26908;SDS011;14477;51.038;4.588;2022-09-25T13:43:20;1.67;;;0.70;;
26908;SDS011;14477;51.038;4.588;2022-09-25T13:48:45;1.55;;;0.80;;
26908;SDS011;14477;51.038;4.588;2022-09-25T13:53:56;2.15;;;0.80;;
26908;SDS011;14477;51.038;4.588;2022-09-25T14:01:39;1.30;;;0.70;;
26908;SDS011;14477;51.038;4.588;2022-09-25T14:06:44;0.75;;;0.75;;
26908;SDS011;14477;51.038;4.588;2022-09-25T14:09:13;3.17;;;0.90;;
26908;SDS011;14477;51.038;4.588;2022-09-25T14:11:50;0.60;;;0.60;;
26908;SDS011;14477;51.038;4.588;2022-09-25T14:14:56;1.58;;;0.60;;
26908;SDS011;14477;51.038;4.588;2022-09-25T14:17:26;1.23;;;0.60;;
26908;SDS011;14477;51.038;4.588;2022-09-25T14:19:56;1.23;;;0.60;;
26908;SDS011;14477;51.038;4.588;2022-09-25T14:22:35;1.10;;;0.50;;
26908;SDS011;14477;51.038;4.588;2022-09-25T14:28:18;2.95;;;0.70;;
26908;SDS011;14477;51.038;4.588;2022-09-25T14:30:59;0.40;;;0.40;;
26908;SDS011;14477;51.038;4.588;2022-09-25T14:47:25;1.33;;;0.52;;
26908;SDS011;14477;51.038;4.588;2022-09-25T14:49:57;0.93;;;0.57;;
26908;SDS011;14477;51.038;4.588;2022-09-25T14:52:24;1.08;;;0.60;;
26908;SDS011;14477;51.038;4.588;2022-09-25T14:54:56;1.05;;;0.68;;
26908;SDS011;14477;51.038;4.588;2022-09-25T14:57:30;0.90;;;0.63;;
26908;SDS011;14477;51.038;4.588;2022-09-25T15:00:00;1.17;;;0.60;;
26908;SDS011;14477;51.038;4.588;2022-09-25T15:02:34;1.10;;;0.60;;
26908;SDS011;14477;51.038;4.588;2022-09-25T15:07:48;1.40;;;0.68;;
26908;SDS011;14477;51.038;4.588;2022-09-25T15:13:16;1.38;;;0.65;;
26908;SDS011;14477;51.038;4.588;2022-09-25T15:15:44;0.60;;;0.60;;
26908;SDS011;14477;51.038;4.588;2022-09-25T15:18:51;0.77;;;0.63;;
26908;SDS011;14477;51.038;4.588;2022-09-25T15:21:27;0.75;;;0.60;;
26908;SDS011;14477;51.038;4.588;2022-09-25T15:23:56;1.15;;;0.60;;
26908;SDS011;14477;51.038;4.588;2022-09-25T15:26:26;0.90;;;0.70;;
26908;SDS011;14477;51.038;4.588;2022-09-25T15:28:54;1.20;;;0.60;;
26908;SDS011;14477;51.038;4.588;2022-09-25T15:31:19;0.77;;;0.60;;
26908;SDS011;14477;51.038;4.588;2022-09-25T15:33:59;1.25;;;0.60;;
26908;SDS011;14477;51.038;4.588;2022-09-25T15:36:46;0.77;;;0.63;;
26908;SDS011;14477;51.038;4.588;2022-09-25T15:39:15;0.93;;;0.60;;
26908;SDS011;14477;51.038;4.588;2022-09-25T15:41:45;1.50;;;0.68;;
26908;SDS011;14477;51.038;4.588;2022-09-25T15:44:12;0.90;;;0.68;;
26908;SDS011;14477;51.038;4.588;2022-09-25T15:46:43;1.70;;;0.70;;
26908;SDS011;14477;51.038;4.588;2022-09-25T15:49:15;1.10;;;0.63;;
26908;SDS011;14477;51.038;4.588;2022-09-25T15:51:45;2.05;;;0.70;;
26908;SDS011;14477;51.038;4.588;2022-09-25T15:57:02;1.15;;;0.60;;
26908;SDS011;14477;51.038;4.588;2022-09-25T16:02:22;0.93;;;0.50;;
26908;SDS011;14477;51.038;4.588;2022-09-25T16:05:09;0.75;;;0.60;;
26908;SDS011;14477;51.038;4.588;2022-09-25T16:07:36;1.20;;;0.60;;
26908;SDS011;14477;51.038;4.588;2022-09-25T16:10:27;1.13;;;0.57;;
26908;SDS011;14477;51.038;4.588;2022-09-25T16:12:52;2.25;;;0.70;;
26908;SDS011;14477;51.038;4.588;2022-09-25T16:17:56;1.15;;;0.52;;
26908;SDS011;14477;51.038;4.588;2022-09-25T16:20:42;0.77;;;0.50;;
26908;SDS011;14477;51.038;4.588;2022-09-25T16:23:17;0.87;;;0.60;;
26908;SDS011;14477;51.038;4.588;2022-09-25T16:25:52;0.52;;;0.50;;
26908;SDS011;14477;51.038;4.588;2022-09-25T16:28:22;0.93;;;0.60;;
26908;SDS011;14477;51.038;4.588;2022-09-25T16:30:58;1.03;;;0.50;;
26908;SDS011;14477;51.038;4.588;2022-09-25T16:33:26;0.75;;;0.60;;
26908;SDS011;14477;51.038;4.588;2022-09-25T16:35:55;0.82;;;0.50;;
26908;SDS011;14477;51.038;4.588;2022-09-25T16:38:29;1.05;;;0.50;;
26908;SDS011;14477;51.038;4.588;2022-09-25T16:41:41;3.65;;;0.60;;
26908;SDS011;14477;51.038;4.588;2022-09-25T16:44:00;1.03;;;0.50;;
26908;SDS011;14477;51.038;4.588;2022-09-25T16:46:27;1.00;;;0.50;;
26908;SDS011;14477;51.038;4.588;2022-09-25T16:48:57;1.13;;;0.50;;
26908;SDS011;14477;51.038;4.588;2022-09-25T16:51:24;0.55;;;0.50;;
26908;SDS011;14477;51.038;4.588;2022-09-25T16:53:51;1.00;;;0.60;;
26908;SDS011;14477;51.038;4.588;2022-09-25T16:56:22;0.63;;;0.60;;
26908;SDS011;14477;51.038;4.588;2022-09-25T16:58:50;0.82;;;0.70;;
26908;SDS011;14477;51.038;4.588;2022-09-25T17:01:16;1.05;;;0.52;;
26908;SDS011;14477;51.038;4.588;2022-09-25T17:03:43;1.00;;;0.60;;
26908;SDS011;14477;51.038;4.588;2022-09-25T17:06:16;1.05;;;0.73;;
26908;SDS011;14477;51.038;4.588;2022-09-25T17:08:47;1.50;;;0.60;;
26908;SDS011;14477;51.038;4.588;2022-09-25T17:11:14;0.70;;;0.60;;
26908;SDS011;14477;51.038;4.588;2022-09-25T17:13:42;1.17;;;0.60;;
26908;SDS011;14477;51.038;4.588;2022-09-25T17:16:08;1.20;;;0.70;;
26908;SDS011;14477;51.038;4.588;2022-09-25T17:18:34;1.23;;;0.80;;
26908;SDS011;14477;51.038;4.588;2022-09-25T17:21:01;0.93;;;0.70;;
26908;SDS011;14477;51.038;4.588;2022-09-25T17:23:28;1.52;;;0.65;;
26908;SDS011;14477;51.038;4.588;2022-09-25T17:26:05;0.88;;;0.60;;
26908;SDS011;14477;51.038;4.588;2022-09-25T17:28:48;1.30;;;0.70;;
26908;SDS011;14477;51.038;4.588;2022-09-25T17:31:16;1.00;;;0.57;;
26908;SDS011;14477;51.038;4.588;2022-09-25T17:33:43;0.60;;;0.50;;
26908;SDS011;14477;51.038;4.588;2022-09-25T17:36:10;0.90;;;0.70;;
26908;SDS011;14477;51.038;4.588;2022-09-25T17:38:36;1.63;;;0.70;;
26908;SDS011;14477;51.038;4.588;2022-09-25T17:41:03;1.15;;;0.70;;
26908;SDS011;14477;51.038;4.588;2022-09-25T17:43:31;0.67;;;0.60;;
26908;SDS011;14477;51.038;4.588;2022-09-25T17:45:58;0.93;;;0.60;;
26908;SDS011;14477;51.038;4.588;2022-09-25T17:48:25;1.13;;;0.90;;
26908;SDS011;14477;51.038;4.588;2022-09-25T17:50:54;1.38;;;0.82;;
26908;SDS011;14477;51.038;4.588;2022-09-25T17:53:25;1.13;;;0.82;;
26908;SDS011;14477;51.038;4.588;2022-09-25T17:55:53;1.00;;;0.80;;
26908;SDS011;14477;51.038;4.588;2022-09-25T17:58:19;2.45;;;0.80;;
26908;SDS011;14477;51.038;4.588;2022-09-25T18:00:46;1.88;;;0.80;;
26908;SDS011;14477;51.038;4.588;2022-09-25T18:03:13;1.50;;;0.90;;
26908;SDS011;14477;51.038;4.588;2022-09-25T18:05:39;2.22;;;0.73;;
26908;SDS011;14477;51.038;4.588;2022-09-25T18:08:06;1.20;;;0.80;;
26908;SDS011;14477;51.038;4.588;2022-09-25T18:10:32;2.45;;;0.85;;
26908;SDS011;14477;51.038;4.588;2022-09-25T18:13:00;2.45;;;0.93;;
26908;SDS011;14477;51.038;4.588;2022-09-25T18:15:26;3.85;;;1.50;;
26908;SDS011;14477;51.038;4.588;2022-09-25T18:17:53;3.67;;;1.60;;
26908;SDS011;14477;51.038;4.588;2022-09-25T18:20:20;2.43;;;1.10;;
26908;SDS011;14477;51.038;4.588;2022-09-25T18:23:05;1.52;;;1.05;;
26908;SDS011;14477;51.038;4.588;2022-09-25T18:25:31;1.95;;;1.10;;
26908;SDS011;14477;51.038;4.588;2022-09-25T18:28:00;3.38;;;1.05;;
26908;SDS011;14477;51.038;4.588;2022-09-25T18:30:26;1.43;;;1.00;;
26908;SDS011;14477;51.038;4.588;2022-09-25T18:32:52;1.58;;;1.00;;
26908;SDS011;14477;51.038;4.588;2022-09-25T18:35:18;1.63;;;1.00;;